createdAt,value
2017-10-16T00:00:48.083Z,23.15
2017-10-16T00:01:57.450Z,23.15
2017-10-16T00:03:06.810Z,23.17
2017-10-16T00:04:16.172Z,23
2017-10-16T00:05:25.202Z,23.09
2017-10-16T00:06:33.898Z,23.02
2017-10-16T00:07:43.259Z,23.02
2017-10-16T00:08:51.957Z,23.08
2017-10-16T00:10:01.319Z,23.03
2017-10-16T00:11:10.685Z,23.02
2017-10-16T00:12:19.381Z,23.03
2017-10-16T00:13:28.077Z,23.02
2017-10-16T00:14:37.444Z,23
2017-10-16T00:15:46.805Z,22.93
2017-10-16T00:16:56.163Z,23.05
2017-10-16T00:18:04.860Z,23.06
2017-10-16T00:19:13.893Z,23.03
2017-10-16T00:20:23.254Z,23.08
2017-10-16T00:21:32.299Z,23.03
2017-10-16T00:22:40.981Z,23.09
2017-10-16T00:23:50.357Z,23.02
2017-10-16T00:24:59.393Z,23.08
2017-10-16T00:26:09.439Z,23.02
2017-10-16T00:27:18.141Z,22.99
2017-10-16T00:28:27.176Z,23.05
2017-10-16T00:29:36.203Z,23
2017-10-16T00:30:45.571Z,23.03
2017-10-16T00:31:54.942Z,23
2017-10-16T00:33:03.631Z,23.03
2017-10-16T00:34:12.661Z,23.03
2017-10-16T00:35:22.016Z,23
2017-10-16T00:36:31.381Z,23.09
2017-10-16T00:37:41.070Z,23.06
2017-10-16T00:38:50.788Z,23
2017-10-16T00:39:59.816Z,23
2017-10-16T00:41:08.852Z,22.99
2017-10-16T00:42:17.553Z,23.03
2017-10-16T00:43:26.917Z,23.06
2017-10-16T00:44:35.946Z,23
2017-10-16T00:45:45.646Z,23
2017-10-16T00:46:55.355Z,23
2017-10-16T00:48:04.721Z,23.05
2017-10-16T00:49:13.748Z,22.99
2017-10-16T00:50:23.107Z,22.96
2017-10-16T00:51:32.141Z,23
2017-10-16T00:52:41.168Z,22.99
2017-10-16T00:53:49.870Z,22.99
2017-10-16T00:54:59.235Z,23
2017-10-16T00:56:08.599Z,23
2017-10-16T00:57:17.628Z,23
2017-10-16T00:58:26.331Z,23.08
2017-10-16T00:59:35.362Z,22.96
2017-10-16T01:00:44.395Z,22.96
2017-10-16T01:01:53.757Z,23.02
2017-10-16T01:03:02.790Z,23.03
2017-10-16T01:04:12.486Z,22.94
2017-10-16T01:05:21.519Z,22.93
2017-10-16T01:06:31.210Z,22.87
2017-10-16T01:07:40.239Z,22.87
2017-10-16T01:08:49.602Z,22.96
2017-10-16T01:09:58.630Z,22.87
2017-10-16T01:11:07.659Z,22.87
2017-10-16T01:12:16.697Z,22.88
2017-10-16T01:13:25.395Z,22.93
2017-10-16T01:14:34.756Z,22.96
2017-10-16T01:15:44.119Z,22.96
2017-10-16T01:16:53.826Z,22.94
2017-10-16T01:18:02.856Z,22.96
2017-10-16T01:19:12.228Z,22.93
2017-10-16T01:20:21.925Z,22.94
2017-10-16T01:21:30.624Z,22.96
2017-10-16T01:22:39.321Z,22.98
2017-10-16T01:23:48.717Z,22.96
2017-10-16T01:24:57.745Z,22.96
2017-10-16T01:26:06.782Z,22.94
2017-10-16T01:27:15.481Z,22.98
2017-10-16T01:28:24.838Z,22.98
2017-10-16T01:29:34.202Z,22.87
2017-10-16T01:30:42.903Z,22.96
2017-10-16T01:31:51.942Z,22.93
2017-10-16T01:33:01.299Z,22.75
2017-10-16T01:34:10.000Z,22.83
2017-10-16T01:35:19.357Z,22.91
2017-10-16T01:36:28.722Z,22.81
2017-10-16T01:37:37.750Z,22.88
2017-10-16T01:38:46.785Z,22.9
2017-10-16T01:39:56.152Z,22.83
2017-10-16T01:41:05.182Z,22.8
2017-10-16T01:42:14.548Z,22.85
2017-10-16T01:43:23.909Z,22.85
2017-10-16T01:44:32.944Z,22.72
2017-10-16T01:45:41.974Z,22.78
2017-10-16T01:46:51.011Z,22.76
2017-10-16T01:48:00.052Z,22.83
2017-10-16T01:49:09.413Z,22.8
2017-10-16T01:50:18.785Z,22.84
2017-10-16T01:51:27.482Z,22.8
2017-10-16T01:52:37.521Z,22.73
2017-10-16T01:53:46.217Z,22.81
2017-10-16T01:54:54.916Z,22.83
2017-10-16T01:56:04.275Z,22.76
2017-10-16T01:57:13.638Z,22.76
2017-10-16T01:58:22.668Z,22.76
2017-10-16T01:59:32.362Z,22.73
2017-10-16T02:00:42.062Z,22.78
2017-10-16T02:01:51.106Z,22.83
2017-10-16T02:02:59.791Z,22.72
2017-10-16T02:04:08.489Z,22.78
2017-10-16T02:05:17.187Z,22.72
2017-10-16T02:06:26.215Z,22.8
2017-10-16T02:07:35.910Z,22.8
2017-10-16T02:08:45.264Z,22.73
2017-10-16T02:09:53.965Z,22.72
2017-10-16T02:11:03.028Z,22.68
2017-10-16T02:12:12.721Z,22.7
2017-10-16T02:13:21.416Z,22.68
2017-10-16T02:14:30.776Z,22.72
2017-10-16T02:15:39.805Z,22.73
2017-10-16T02:16:48.831Z,22.7
2017-10-16T02:17:58.528Z,22.7
2017-10-16T02:19:07.557Z,22.7
2017-10-16T02:20:16.922Z,22.68
2017-10-16T02:21:25.949Z,22.73
2017-10-16T02:22:34.983Z,22.68
2017-10-16T02:23:44.343Z,22.73
2017-10-16T02:24:53.373Z,22.7
2017-10-16T02:26:02.400Z,22.7
2017-10-16T02:27:11.435Z,22.65
2017-10-16T02:28:20.464Z,22.68
2017-10-16T02:29:29.829Z,22.76
2017-10-16T02:30:38.862Z,22.69
2017-10-16T02:31:47.569Z,22.7
2017-10-16T02:32:56.599Z,22.72
2017-10-16T02:34:05.292Z,22.69
2017-10-16T02:35:14.320Z,22.73
2017-10-16T02:36:23.015Z,22.76
2017-10-16T02:37:32.376Z,22.8
2017-10-16T02:38:41.406Z,22.72
2017-10-16T02:39:50.435Z,22.73
2017-10-16T02:40:59.799Z,22.73
2017-10-16T02:42:09.495Z,22.72
2017-10-16T02:43:19.525Z,22.68
2017-10-16T02:44:28.893Z,22.69
2017-10-16T02:45:38.946Z,22.8
2017-10-16T02:46:47.624Z,22.7
2017-10-16T02:47:56.986Z,22.72
2017-10-16T02:49:06.016Z,22.72
2017-10-16T02:50:14.715Z,22.7
2017-10-16T02:51:24.414Z,22.81
2017-10-16T02:52:33.778Z,22.68
2017-10-16T02:53:42.477Z,22.72
2017-10-16T02:54:51.508Z,22.73
2017-10-16T02:56:00.891Z,22.72
2017-10-16T02:57:09.923Z,22.7
2017-10-16T02:58:19.286Z,22.69
2017-10-16T02:59:28.657Z,22.65
2017-10-16T03:00:38.394Z,22.75
2017-10-16T03:01:47.753Z,22.72
2017-10-16T03:02:57.118Z,22.75
2017-10-16T03:04:06.807Z,22.73
2017-10-16T03:05:16.502Z,22.68
2017-10-16T03:06:25.195Z,22.66
2017-10-16T03:07:34.226Z,22.72
2017-10-16T03:08:43.263Z,22.73
2017-10-16T03:09:52.294Z,22.7
2017-10-16T03:11:00.990Z,22.7
2017-10-16T03:12:10.352Z,22.69
2017-10-16T03:13:19.391Z,22.69
2017-10-16T03:14:28.750Z,22.69
2017-10-16T03:15:38.111Z,22.68
2017-10-16T03:16:47.138Z,22.69
2017-10-16T03:17:56.507Z,22.7
2017-10-16T03:19:05.863Z,22.7
2017-10-16T03:20:15.226Z,22.78
2017-10-16T03:21:23.924Z,22.69
2017-10-16T03:22:32.964Z,22.65
2017-10-16T03:23:42.660Z,22.7
2017-10-16T03:24:51.703Z,22.7
2017-10-16T03:26:01.063Z,22.75
2017-10-16T03:27:10.431Z,22.73
2017-10-16T03:28:19.465Z,22.65
2017-10-16T03:29:28.163Z,22.69
2017-10-16T03:30:37.527Z,22.73
2017-10-16T03:31:46.889Z,22.66
2017-10-16T03:32:55.920Z,22.65
2017-10-16T03:34:04.954Z,22.69
2017-10-16T03:35:13.978Z,22.69
2017-10-16T03:36:22.673Z,22.59
2017-10-16T03:37:31.704Z,22.68
2017-10-16T03:38:40.733Z,22.63
2017-10-16T03:39:49.766Z,22.57
2017-10-16T03:40:58.799Z,22.53
2017-10-16T03:42:08.183Z,22.51
2017-10-16T03:43:17.880Z,22.54
2017-10-16T03:44:26.576Z,22.6
2017-10-16T03:45:35.277Z,22.55
2017-10-16T03:46:44.635Z,22.63
2017-10-16T03:47:54.336Z,22.53
2017-10-16T03:49:03.034Z,22.54
2017-10-16T03:50:12.397Z,22.55
2017-10-16T03:51:21.423Z,22.51
2017-10-16T03:52:31.116Z,22.45
2017-10-16T03:53:40.483Z,22.44
2017-10-16T03:54:49.512Z,22.48
2017-10-16T03:55:59.544Z,22.44
2017-10-16T03:57:08.911Z,22.45
2017-10-16T03:58:17.937Z,22.5
2017-10-16T03:59:26.635Z,22.48
2017-10-16T04:00:35.338Z,22.48
2017-10-16T04:01:44.708Z,22.48
2017-10-16T04:02:53.734Z,22.48
2017-10-16T04:04:02.763Z,22.51
2017-10-16T04:05:11.458Z,22.51
2017-10-16T04:06:20.486Z,22.51
2017-10-16T04:07:29.518Z,22.47
2017-10-16T04:08:39.217Z,22.43
2017-10-16T04:09:48.575Z,22.45
2017-10-16T04:10:57.606Z,22.45
2017-10-16T04:12:06.971Z,22.45
2017-10-16T04:13:16.003Z,22.45
2017-10-16T04:14:25.703Z,22.45
2017-10-16T04:15:35.738Z,22.45
2017-10-16T04:16:45.098Z,22.44
2017-10-16T04:17:54.799Z,22.47
2017-10-16T04:19:03.827Z,22.43
2017-10-16T04:20:12.857Z,22.45
2017-10-16T04:21:22.222Z,22.5
2017-10-16T04:22:31.586Z,22.43
2017-10-16T04:23:40.950Z,22.44
2017-10-16T04:24:49.975Z,22.45
2017-10-16T04:25:59.005Z,22.38
2017-10-16T04:27:07.703Z,22.45
2017-10-16T04:28:17.401Z,22.39
2017-10-16T04:29:26.770Z,22.45
2017-10-16T04:30:36.470Z,22.45
2017-10-16T04:31:45.834Z,22.45
2017-10-16T04:32:54.864Z,22.44
2017-10-16T04:34:04.890Z,22.47
2017-10-16T04:35:13.922Z,22.45
2017-10-16T04:36:23.609Z,22.48
2017-10-16T04:37:32.641Z,22.47
2017-10-16T04:38:42.003Z,22.47
2017-10-16T04:39:51.043Z,22.43
2017-10-16T04:41:00.403Z,22.47
2017-10-16T04:42:09.762Z,22.38
2017-10-16T04:43:18.793Z,22.47
2017-10-16T04:44:27.823Z,22.47
2017-10-16T04:45:36.854Z,22.38
2017-10-16T04:46:45.562Z,22.41
2017-10-16T04:47:54.585Z,22.36
2017-10-16T04:49:04.291Z,22.38
2017-10-16T04:50:13.325Z,22.43
2017-10-16T04:51:22.022Z,22.36
2017-10-16T04:52:31.055Z,22.39
2017-10-16T04:53:41.087Z,22.41
2017-10-16T04:54:49.788Z,22.38
2017-10-16T04:55:58.486Z,22.32
2017-10-16T04:57:07.516Z,22.39
2017-10-16T04:58:16.549Z,22.35
2017-10-16T04:59:25.916Z,22.38
2017-10-16T05:00:34.944Z,22.35
2017-10-16T05:01:44.308Z,22.38
2017-10-16T05:02:53.007Z,22.39
2017-10-16T05:04:02.695Z,22.33
2017-10-16T05:05:12.056Z,22.36
2017-10-16T05:06:21.414Z,22.39
2017-10-16T05:07:30.446Z,22.45
2017-10-16T05:08:39.804Z,22.39
2017-10-16T05:09:49.169Z,22.41
2017-10-16T05:10:57.864Z,22.39
2017-10-16T05:12:06.566Z,22.44
2017-10-16T05:13:16.271Z,22.47
2017-10-16T05:14:25.959Z,22.47
2017-10-16T05:15:35.988Z,22.51
2017-10-16T05:16:45.019Z,22.51
2017-10-16T05:17:54.056Z,22.53
2017-10-16T05:19:03.087Z,22.54
2017-10-16T05:20:11.784Z,22.53
2017-10-16T05:21:20.483Z,22.51
2017-10-16T05:22:29.508Z,22.54
2017-10-16T05:23:38.206Z,22.51
2017-10-16T05:24:47.565Z,22.45
2017-10-16T05:25:56.595Z,22.48
2017-10-16T05:27:05.640Z,22.45
2017-10-16T05:28:15.023Z,22.51
2017-10-16T05:29:24.055Z,22.53
2017-10-16T05:30:34.081Z,22.47
2017-10-16T05:31:43.115Z,22.57
2017-10-16T05:32:52.154Z,22.48
2017-10-16T05:34:00.850Z,22.5
2017-10-16T05:35:10.218Z,22.57
2017-10-16T05:36:19.253Z,22.57
2017-10-16T05:37:28.279Z,22.55
2017-10-16T05:38:37.646Z,22.6
2017-10-16T05:39:47.680Z,22.57
2017-10-16T05:40:56.711Z,22.53
2017-10-16T05:42:05.744Z,22.54
2017-10-16T05:43:15.440Z,22.55
2017-10-16T05:44:24.804Z,22.53
2017-10-16T05:45:33.831Z,22.55
2017-10-16T05:46:42.855Z,22.59
2017-10-16T05:47:51.884Z,22.57
2017-10-16T05:49:01.579Z,22.57
2017-10-16T05:50:10.941Z,22.63
2017-10-16T05:51:20.630Z,22.6
2017-10-16T05:52:29.667Z,22.59
2017-10-16T05:53:38.359Z,22.59
2017-10-16T05:54:47.059Z,22.59
2017-10-16T05:55:56.093Z,22.53
2017-10-16T05:57:04.787Z,22.57
2017-10-16T05:58:13.488Z,22.54
2017-10-16T05:59:22.518Z,22.51
2017-10-16T06:00:32.235Z,22.45
2017-10-16T06:01:41.935Z,22.48
2017-10-16T06:02:51.636Z,22.44
2017-10-16T06:04:00.337Z,22.41
2017-10-16T06:05:10.040Z,22.39
2017-10-16T06:06:19.403Z,22.39
2017-10-16T06:07:28.782Z,22.39
2017-10-16T06:08:37.815Z,22.36
2017-10-16T06:09:46.844Z,22.36
2017-10-16T06:10:55.883Z,22.35
2017-10-16T06:12:04.579Z,22.39
2017-10-16T06:13:13.606Z,22.33
2017-10-16T06:14:22.633Z,22.33
2017-10-16T06:15:32.331Z,22.22
2017-10-16T06:16:41.696Z,22.26
2017-10-16T06:17:50.728Z,22.3
2017-10-16T06:18:59.758Z,22.25
2017-10-16T06:20:09.454Z,22.22
2017-10-16T06:21:18.484Z,22.23
2017-10-16T06:22:28.179Z,22.28
2017-10-16T06:23:37.205Z,22.23
2017-10-16T06:24:46.247Z,22.25
2017-10-16T06:25:55.597Z,22.2
2017-10-16T06:27:04.294Z,22.28
2017-10-16T06:28:13.325Z,22.41
2017-10-16T06:29:22.719Z,22.35
2017-10-16T06:30:31.417Z,22.36
2017-10-16T06:31:40.114Z,22.41
2017-10-16T06:32:49.155Z,22.32
2017-10-16T06:33:58.884Z,22.29
2017-10-16T06:35:07.918Z,22.28
2017-10-16T06:36:16.951Z,22.3
2017-10-16T06:37:26.325Z,22.29
2017-10-16T06:38:35.360Z,22.3
2017-10-16T06:39:44.055Z,22.28
2017-10-16T06:40:53.083Z,22.3
2017-10-16T06:42:02.111Z,22.3
2017-10-16T06:43:11.143Z,22.32
2017-10-16T06:44:19.838Z,22.35
2017-10-16T06:45:29.536Z,22.36
2017-10-16T06:46:38.235Z,22.3
2017-10-16T06:47:47.604Z,22.33
2017-10-16T06:48:57.296Z,22.33
2017-10-16T06:50:06.656Z,22.32
2017-10-16T06:51:16.019Z,22.32
2017-10-16T06:52:25.051Z,22.32
2017-10-16T06:53:34.077Z,22.26
2017-10-16T06:54:43.436Z,22.36
2017-10-16T06:55:52.472Z,22.3
2017-10-16T06:57:01.842Z,22.28
2017-10-16T06:58:11.210Z,22.44
2017-10-16T06:59:20.569Z,22.32
2017-10-16T07:00:29.929Z,22.41
2017-10-16T07:01:38.959Z,22.35
2017-10-16T07:02:47.993Z,22.44
2017-10-16T07:03:57.027Z,22.45
2017-10-16T07:05:06.391Z,22.44
2017-10-16T07:06:15.761Z,22.44
2017-10-16T07:07:25.125Z,22.51
2017-10-16T07:08:34.493Z,22.43
2017-10-16T07:09:43.525Z,22.45
2017-10-16T07:10:52.896Z,22.47
2017-10-16T07:12:01.613Z,22.5
2017-10-16T07:13:11.334Z,22.44
2017-10-16T07:14:20.035Z,22.53
2017-10-16T07:15:29.080Z,22.5
2017-10-16T07:16:37.781Z,22.48
2017-10-16T07:17:46.812Z,22.45
2017-10-16T07:18:56.838Z,22.48
2017-10-16T07:20:06.198Z,22.47
2017-10-16T07:21:15.563Z,22.39
2017-10-16T07:22:24.259Z,22.45
2017-10-16T07:23:33.290Z,22.36
2017-10-16T07:24:42.990Z,22.38
2017-10-16T07:25:52.014Z,22.41
2017-10-16T07:27:01.043Z,22.41
2017-10-16T07:28:10.078Z,22.35
2017-10-16T07:29:19.116Z,22.35
2017-10-16T07:30:28.143Z,22.43
2017-10-16T07:31:37.178Z,22.41
2017-10-16T07:32:46.543Z,22.5
2017-10-16T07:33:55.930Z,22.57
2017-10-16T07:35:04.612Z,22.7
2017-10-16T07:36:13.640Z,22.72
2017-10-16T07:37:23.002Z,22.7
2017-10-16T07:38:32.030Z,22.83
2017-10-16T07:39:40.726Z,22.85
2017-10-16T07:40:50.091Z,22.96
2017-10-16T07:41:59.784Z,23.02
2017-10-16T07:43:08.814Z,23.06
2017-10-16T07:44:17.845Z,23.17
2017-10-16T07:45:26.876Z,23.21
2017-10-16T07:46:35.921Z,23.2
2017-10-16T07:47:44.622Z,23.34
2017-10-16T07:48:53.992Z,23.28
2017-10-16T07:50:03.033Z,23.23
2017-10-16T07:51:12.733Z,23.31
2017-10-16T07:52:22.129Z,23.31
2017-10-16T07:53:31.481Z,23.27
2017-10-16T07:54:40.510Z,23.36
2017-10-16T07:55:49.539Z,23.39
2017-10-16T07:56:58.904Z,23.39
2017-10-16T07:58:07.598Z,23.34
2017-10-16T07:59:16.298Z,23.39
2017-10-16T08:00:25.661Z,23.41
2017-10-16T08:01:34.359Z,23.48
2017-10-16T08:02:43.725Z,23.47
2017-10-16T08:03:53.766Z,23.5
2017-10-16T08:05:02.796Z,23.44
2017-10-16T08:06:12.162Z,23.51
2017-10-16T08:07:20.864Z,23.5
2017-10-16T08:08:29.903Z,23.44
2017-10-16T08:09:38.600Z,23.51
2017-10-16T08:10:48.298Z,23.56
2017-10-16T08:11:57.328Z,23.62
2017-10-16T08:13:07.039Z,23.73
2017-10-16T08:14:16.068Z,23.73
2017-10-16T08:15:25.103Z,23.65
2017-10-16T08:16:34.132Z,23.77
2017-10-16T08:17:43.167Z,23.73
2017-10-16T08:18:53.194Z,23.68
2017-10-16T08:20:02.230Z,23.8
2017-10-16T08:21:11.594Z,23.78
2017-10-16T08:22:20.627Z,23.91
2017-10-16T08:23:29.755Z,23.92
2017-10-16T08:24:38.451Z,23.88
2017-10-16T08:25:47.157Z,24.03
2017-10-16T08:26:56.524Z,23.95
2017-10-16T08:28:05.557Z,24.05
2017-10-16T08:29:14.919Z,24.08
2017-10-16T08:30:23.622Z,24.06
2017-10-16T08:31:32.655Z,24.24
2017-10-16T08:32:42.348Z,24.14
2017-10-16T08:33:51.051Z,24.17
2017-10-16T08:35:00.089Z,24.21
2017-10-16T08:36:09.457Z,24.23
2017-10-16T08:37:19.155Z,24.24
2017-10-16T08:38:28.518Z,24.36
2017-10-16T08:39:37.875Z,24.36
2017-10-16T08:40:46.904Z,24.32
2017-10-16T08:41:55.600Z,24.43
2017-10-16T08:43:04.630Z,24.5
2017-10-16T08:44:13.992Z,24.51
2017-10-16T08:45:23.360Z,24.6
2017-10-16T08:46:33.051Z,24.55
2017-10-16T08:47:42.096Z,24.6
2017-10-16T08:48:51.779Z,24.65
2017-10-16T08:50:00.813Z,24.68
2017-10-16T08:51:09.848Z,24.77
2017-10-16T08:52:19.212Z,24.78
2017-10-16T08:53:27.914Z,24.88
2017-10-16T08:54:36.612Z,24.92
2017-10-16T08:55:45.317Z,25.04
2017-10-16T08:56:54.684Z,25.06
2017-10-16T08:58:03.384Z,25.1
2017-10-16T08:59:12.748Z,25.21
2017-10-16T09:00:22.112Z,25.22
2017-10-16T09:01:31.146Z,25.31
2017-10-16T09:02:39.843Z,25.35
2017-10-16T09:03:49.028Z,25.33
2017-10-16T09:04:57.912Z,25.48
2017-10-16T09:06:06.614Z,25.58
2017-10-16T09:07:15.317Z,25.63
2017-10-16T09:08:24.691Z,25.73
2017-10-16T09:09:34.728Z,25.75
2017-10-16T09:10:43.760Z,25.85
2017-10-16T09:11:52.793Z,26.05
2017-10-16T09:13:01.828Z,26.21
2017-10-16T09:14:11.194Z,26.36
2017-10-16T09:15:19.898Z,26.37
2017-10-16T09:16:28.596Z,26.55
2017-10-16T09:17:37.633Z,26.6
2017-10-16T09:18:46.994Z,26.75
2017-10-16T09:19:55.690Z,26.89
2017-10-16T09:21:05.404Z,27
2017-10-16T09:22:15.106Z,27.08
2017-10-16T09:23:25.149Z,27.17
2017-10-16T09:24:33.860Z,27.39
2017-10-16T09:25:43.556Z,27.45
2017-10-16T09:26:52.929Z,27.52
2017-10-16T09:28:01.960Z,27.68
2017-10-16T09:29:11.322Z,27.73
2017-10-16T09:30:20.356Z,27.89
2017-10-16T09:31:30.065Z,27.98
2017-10-16T09:32:39.498Z,28.04
2017-10-16T09:33:48.531Z,28.12
2017-10-16T09:34:57.897Z,28.19
2017-10-16T09:36:06.595Z,28.44
2017-10-16T09:37:15.624Z,28.52
2017-10-16T09:38:24.995Z,28.69
2017-10-16T09:39:34.355Z,28.72
2017-10-16T09:40:44.386Z,28.79
2017-10-16T09:41:53.087Z,28.85
2017-10-16T09:43:01.785Z,28.91
2017-10-16T09:44:10.820Z,29.04
2017-10-16T09:45:20.180Z,29.14
2017-10-16T09:46:29.213Z,29.17
2017-10-16T09:47:38.594Z,29.23
2017-10-16T09:48:47.961Z,29.34
2017-10-16T09:49:57.339Z,29.32
2017-10-16T09:51:07.070Z,29.47
2017-10-16T09:52:16.097Z,29.44
2017-10-16T09:53:24.801Z,29.57
2017-10-16T09:54:34.502Z,29.63
2017-10-16T09:55:43.545Z,29.66
2017-10-16T09:56:52.576Z,29.71
2017-10-16T09:58:01.278Z,29.75
2017-10-16T09:59:10.308Z,29.79
2017-10-16T10:00:19.349Z,29.87
2017-10-16T10:01:28.751Z,29.98
2017-10-16T10:02:38.117Z,29.94
2017-10-16T10:03:46.822Z,29.91
2017-10-16T10:04:55.856Z,30.05
2017-10-16T10:06:04.888Z,30.13
2017-10-16T10:07:13.926Z,30.18
2017-10-16T10:08:22.628Z,30.16
2017-10-16T10:09:32.333Z,30.13
2017-10-16T10:10:41.364Z,30.19
2017-10-16T10:11:51.067Z,30.15
2017-10-16T10:13:00.104Z,30.03
2017-10-16T10:14:09.139Z,29.97
2017-10-16T10:15:18.503Z,29.87
2017-10-16T10:16:27.884Z,29.78
2017-10-16T10:17:37.250Z,29.56
2017-10-16T10:18:46.625Z,29.44
2017-10-16T10:19:55.327Z,29.35
2017-10-16T10:21:04.362Z,29.42
2017-10-16T10:22:13.733Z,29.39
2017-10-16T10:23:22.443Z,29.47
2017-10-16T10:24:31.472Z,29.6
2017-10-16T10:25:40.849Z,29.66
2017-10-16T10:26:49.881Z,29.73
2017-10-16T10:27:58.914Z,29.79
2017-10-16T10:29:08.290Z,29.71
2017-10-16T10:30:17.656Z,29.57
2017-10-16T10:31:26.691Z,29.44
2017-10-16T10:32:35.725Z,29.38
2017-10-16T10:33:45.108Z,29.32
2017-10-16T10:34:55.157Z,29.24
2017-10-16T10:36:03.860Z,29.22
2017-10-16T10:37:12.892Z,29.12
2017-10-16T10:38:22.259Z,29.02
2017-10-16T10:39:31.288Z,28.86
2017-10-16T10:40:40.659Z,28.85
2017-10-16T10:41:50.027Z,28.76
2017-10-16T10:42:59.065Z,28.67
2017-10-16T10:44:08.437Z,28.59
2017-10-16T10:45:17.474Z,28.45
2017-10-16T10:46:26.840Z,28.42
2017-10-16T10:47:35.870Z,28.25
2017-10-16T10:48:45.238Z,28.17
2017-10-16T10:49:53.942Z,28.02
2017-10-16T10:51:03.309Z,28.05
2017-10-16T10:52:12.351Z,27.98
2017-10-16T10:53:21.389Z,27.8
2017-10-16T10:54:30.422Z,27.82
2017-10-16T10:55:39.452Z,27.67
2017-10-16T10:56:48.486Z,27.63
2017-10-16T10:57:57.513Z,27.51
2017-10-16T10:59:06.557Z,27.37
2017-10-16T11:00:15.921Z,27.35
2017-10-16T11:01:25.284Z,27.35
2017-10-16T11:02:34.975Z,27.17
2017-10-16T11:03:44.003Z,27.18
2017-10-16T11:04:52.707Z,27.14
2017-10-16T11:06:02.070Z,27.2
2017-10-16T11:07:11.103Z,27.11
2017-10-16T11:08:20.805Z,26.93
2017-10-16T11:09:29.845Z,27
2017-10-16T11:10:38.879Z,26.9
2017-10-16T11:11:48.244Z,26.93
2017-10-16T11:12:57.944Z,26.8
2017-10-16T11:14:07.317Z,26.83
2017-10-16T11:15:16.682Z,26.77
2017-10-16T11:16:25.721Z,26.8
2017-10-16T11:17:34.423Z,26.74
2017-10-16T11:18:43.454Z,26.63
2017-10-16T11:19:53.156Z,26.63
2017-10-16T11:21:02.189Z,26.51
2017-10-16T11:22:11.551Z,26.59
2017-10-16T11:23:20.584Z,26.58
2017-10-16T11:24:29.279Z,26.51
2017-10-16T11:25:39.312Z,26.45
2017-10-16T11:26:48.013Z,26.44
2017-10-16T11:27:57.052Z,26.44
2017-10-16T11:29:06.081Z,26.45
2017-10-16T11:30:15.447Z,26.38
2017-10-16T11:31:24.482Z,26.38
2017-10-16T11:32:33.857Z,26.31
2017-10-16T11:33:43.222Z,26.36
2017-10-16T11:34:52.585Z,26.4
2017-10-16T11:36:01.616Z,26.41
2017-10-16T11:37:11.655Z,26.44
2017-10-16T11:38:20.684Z,26.44
2017-10-16T11:39:30.044Z,26.53
2017-10-16T11:40:39.407Z,26.59
2017-10-16T11:41:49.106Z,26.56
2017-10-16T11:42:58.474Z,26.55
2017-10-16T11:44:07.836Z,26.6
2017-10-16T11:45:17.199Z,26.53
2017-10-16T11:46:26.567Z,26.65
2017-10-16T11:47:35.271Z,26.66
2017-10-16T11:48:44.646Z,26.77
2017-10-16T11:49:53.682Z,26.78
2017-10-16T11:51:02.382Z,26.84
2017-10-16T11:52:11.412Z,26.89
2017-10-16T11:53:21.452Z,26.85
2017-10-16T11:54:31.480Z,26.89
2017-10-16T11:55:40.844Z,26.96
2017-10-16T11:56:50.540Z,27.1
2017-10-16T11:57:59.248Z,27.11
2017-10-16T11:59:08.281Z,27.07
2017-10-16T12:00:17.646Z,27
2017-10-16T12:01:26.678Z,27.15
2017-10-16T12:02:36.051Z,27.17
2017-10-16T12:03:45.098Z,27.15
2017-10-16T12:04:54.794Z,27.2
2017-10-16T12:06:03.828Z,27.18
2017-10-16T12:07:13.198Z,27.25
2017-10-16T12:08:22.233Z,27.21
2017-10-16T12:09:31.267Z,27.27
2017-10-16T12:10:40.300Z,27.22
2017-10-16T12:11:49.999Z,27.21
2017-10-16T12:12:59.377Z,27.27
2017-10-16T12:14:08.769Z,27.29
2017-10-16T12:15:17.814Z,27.18
2017-10-16T12:16:26.842Z,27.22
2017-10-16T12:17:35.543Z,27.2
2017-10-16T12:18:44.574Z,27.17
2017-10-16T12:19:53.607Z,27.14
2017-10-16T12:21:02.644Z,27.07
2017-10-16T12:22:11.344Z,27.1
2017-10-16T12:23:20.712Z,27.03
2017-10-16T12:24:30.081Z,27.05
2017-10-16T12:25:39.112Z,26.99
2017-10-16T12:26:48.477Z,26.89
2017-10-16T12:27:57.851Z,26.89
2017-10-16T12:29:06.885Z,26.89
2017-10-16T12:30:15.921Z,26.83
2017-10-16T12:31:24.955Z,26.8
2017-10-16T12:32:34.656Z,26.81
2017-10-16T12:33:43.358Z,26.77
2017-10-16T12:34:52.401Z,26.77
2017-10-16T12:36:01.765Z,26.7
2017-10-16T12:37:10.465Z,26.66
2017-10-16T12:38:19.498Z,26.7
2017-10-16T12:39:28.194Z,26.65
2017-10-16T12:40:38.226Z,26.66
2017-10-16T12:41:47.278Z,26.71
2017-10-16T12:42:56.303Z,26.66
2017-10-16T12:44:05.006Z,26.63
2017-10-16T12:45:14.047Z,26.63
2017-10-16T12:46:23.411Z,26.56
2017-10-16T12:47:32.478Z,26.56
2017-10-16T12:48:41.518Z,26.53
2017-10-16T12:49:51.549Z,26.51
2017-10-16T12:51:00.579Z,26.45
2017-10-16T12:52:09.961Z,26.47
2017-10-16T12:53:19.329Z,26.43
2017-10-16T12:54:28.359Z,26.41
2017-10-16T12:55:37.723Z,26.43
2017-10-16T12:56:47.101Z,26.43
2017-10-16T12:57:56.138Z,26.34
2017-10-16T12:59:05.506Z,26.31
2017-10-16T13:00:14.884Z,26.36
2017-10-16T13:01:24.261Z,26.41
2017-10-16T13:02:33.289Z,26.36
2017-10-16T13:03:42.658Z,26.31
2017-10-16T13:04:51.695Z,26.34
2017-10-16T13:06:00.398Z,26.26
2017-10-16T13:07:09.761Z,26.38
2017-10-16T13:08:19.126Z,26.38
2017-10-16T13:09:28.157Z,26.38
2017-10-16T13:10:36.861Z,26.31
2017-10-16T13:11:45.561Z,26.33
2017-10-16T13:12:54.590Z,26.33
2017-10-16T13:14:03.628Z,26.43
2017-10-16T13:15:12.662Z,26.47
2017-10-16T13:16:22.034Z,26.28
2017-10-16T13:17:31.065Z,26.4
2017-10-16T13:18:40.097Z,26.41
2017-10-16T13:19:49.480Z,26.34
2017-10-16T13:20:59.184Z,26.36
2017-10-16T13:22:08.218Z,26.34
2017-10-16T13:23:16.920Z,26.25
2017-10-16T13:24:25.620Z,26.36
2017-10-16T13:25:34.987Z,26.25
2017-10-16T13:26:43.686Z,26.22
2017-10-16T13:27:52.385Z,26.19
2017-10-16T13:29:02.097Z,26.21
2017-10-16T13:30:11.470Z,26.1
2017-10-16T13:31:20.172Z,26.15
2017-10-16T13:32:28.873Z,26.09
2017-10-16T13:33:37.905Z,26.1
2017-10-16T13:34:46.934Z,26.03
2017-10-16T13:35:56.294Z,26.05
2017-10-16T13:37:05.651Z,26.03
2017-10-16T13:38:14.685Z,26
2017-10-16T13:39:23.384Z,26.02
2017-10-16T13:40:32.078Z,26.02
2017-10-16T13:41:41.110Z,26.07
2017-10-16T13:42:50.809Z,26.06
2017-10-16T13:43:59.839Z,26.05
2017-10-16T13:45:09.213Z,26.02
2017-10-16T13:46:18.249Z,26
2017-10-16T13:47:27.613Z,26.02
2017-10-16T13:48:36.654Z,26.02
2017-10-16T13:49:46.362Z,25.98
2017-10-16T13:50:55.426Z,25.99
2017-10-16T13:52:04.756Z,25.96
2017-10-16T13:53:14.120Z,25.9
2017-10-16T13:54:22.822Z,25.91
2017-10-16T13:55:31.861Z,25.85
2017-10-16T13:56:40.565Z,25.81
2017-10-16T13:57:49.261Z,25.88
2017-10-16T13:58:58.305Z,25.84
2017-10-16T14:00:07.341Z,25.81
2017-10-16T14:01:16.704Z,25.85
2017-10-16T14:02:26.070Z,25.91
2017-10-16T14:03:35.106Z,25.85
2017-10-16T14:04:44.466Z,25.93
2017-10-16T14:05:53.168Z,25.87
2017-10-16T14:07:02.548Z,25.87
2017-10-16T14:08:11.581Z,25.84
2017-10-16T14:09:21.281Z,25.85
2017-10-16T14:10:30.649Z,25.85
2017-10-16T14:11:40.012Z,25.75
2017-10-16T14:12:48.712Z,25.87
2017-10-16T14:13:58.077Z,25.8
2017-10-16T14:15:07.104Z,25.8
2017-10-16T14:16:16.467Z,25.8
2017-10-16T14:17:25.831Z,25.84
2017-10-16T14:18:35.202Z,25.78
2017-10-16T14:19:44.564Z,25.84
2017-10-16T14:20:53.267Z,25.84
2017-10-16T14:22:02.293Z,25.75
2017-10-16T14:23:10.995Z,25.78
2017-10-16T14:24:20.355Z,25.73
2017-10-16T14:25:29.730Z,25.8
2017-10-16T14:26:38.764Z,25.77
2017-10-16T14:27:47.470Z,25.75
2017-10-16T14:28:56.165Z,25.77
2017-10-16T14:30:05.198Z,25.75
2017-10-16T14:31:14.560Z,25.78
2017-10-16T14:32:23.596Z,25.66
2017-10-16T14:33:33.626Z,25.68
2017-10-16T14:34:42.657Z,25.62
2017-10-16T14:35:51.685Z,25.69
2017-10-16T14:37:00.732Z,25.66
2017-10-16T14:38:10.091Z,25.68
2017-10-16T14:39:18.795Z,25.68
2017-10-16T14:40:27.497Z,25.65
2017-10-16T14:41:36.867Z,25.51
2017-10-16T14:42:46.234Z,25.58
2017-10-16T14:43:55.271Z,25.59
2017-10-16T14:45:04.310Z,25.58
2017-10-16T14:46:13.339Z,25.55
2017-10-16T14:47:22.040Z,25.5
2017-10-16T14:48:31.426Z,25.53
2017-10-16T14:49:40.791Z,25.41
2017-10-16T14:50:50.492Z,25.4
2017-10-16T14:51:59.191Z,25.4
2017-10-16T14:53:08.228Z,25.4
2017-10-16T14:54:17.603Z,25.35
2017-10-16T14:55:26.302Z,25.32
2017-10-16T14:56:35.336Z,25.33